Time;durP1;ratioP1;P1;durP2;ratioP2;P2;SDS_P1;SDS_P2;PMS_P1;PMS_P2;Temp;Humidity;BMP_temperature;BMP_pressure;BME280_temperature;BME280_humidity;BME280_pressure;Samples;Min_cycle;Max_cycle;Signal;HPM_P1;HPM_P2
2024/02/13 00:00:50;;;;;;;10.20;3.53;;;8.80;99.90;;;;;;4268519;27;20070;-61
2024/02/13 00:02:54;;;;;;;9.50;3.70;;;8.70;99.90;;;;;;4268064;27;20053;-60
2024/02/13 00:04:56;;;;;;;7.63;4.20;;;8.70;99.90;;;;;;4268055;27;20092;-61
2024/02/13 00:06:59;;;;;;;8.43;4.10;;;8.70;99.90;;;;;;4268209;27;20053;-61
2024/02/13 00:09:01;;;;;;;11.35;3.60;;;8.70;99.90;;;;;;4268596;27;20208;-62
2024/02/13 00:11:06;;;;;;;12.30;3.95;;;8.60;99.90;;;;;;4269653;27;20123;-61
2024/02/13 00:13:09;;;;;;;7.10;4.15;;;8.70;99.90;;;;;;4268773;27;20117;-62
2024/02/13 00:15:18;;;;;;;6.47;3.45;;;8.60;99.90;;;;;;4268075;27;20050;-61
2024/02/13 00:17:23;;;;;;;12.55;4.13;;;8.60;99.90;;;;;;4267813;27;20513;-61
2024/02/13 00:19:26;;;;;;;6.43;3.30;;;8.60;99.90;;;;;;4267896;27;20064;-61
2024/02/13 00:21:30;;;;;;;9.55;3.85;;;8.50;99.90;;;;;;4267868;27;20047;-61
2024/02/13 00:23:36;;;;;;;8.75;3.72;;;8.50;99.90;;;;;;4268066;27;20045;-63
2024/02/13 00:25:38;;;;;;;10.00;4.00;;;8.50;99.90;;;;;;4267655;27;20064;-61
2024/02/13 00:27:40;;;;;;;10.05;4.45;;;8.60;99.90;;;;;;4268154;27;20043;-60
2024/02/13 00:29:45;;;;;;;12.45;4.50;;;8.50;99.90;;;;;;4267984;27;20122;-61
2024/02/13 00:31:47;;;;;;;8.40;4.13;;;8.40;99.90;;;;;;4267523;27;20043;-61
2024/02/13 00:33:49;;;;;;;10.63;4.60;;;8.40;99.90;;;;;;4267310;27;20481;-62
2024/02/13 00:35:53;;;;;;;10.93;4.32;;;8.30;99.90;;;;;;4267822;27;20047;-62
2024/02/13 00:37:55;;;;;;;10.43;5.20;;;8.40;99.90;;;;;;4268151;27;20046;-61
2024/02/13 00:39:58;;;;;;;10.40;5.10;;;8.50;99.90;;;;;;4270599;27;20039;-62
2024/02/13 00:42:01;;;;;;;18.35;5.45;;;8.50;99.90;;;;;;4269426;27;20126;-61
2024/02/13 00:44:04;;;;;;;12.15;5.88;;;8.30;99.90;;;;;;4267341;27;20053;-61
2024/02/13 00:46:06;;;;;;;13.07;5.70;;;8.20;99.90;;;;;;4267230;27;20043;-61
2024/02/13 00:48:08;;;;;;;12.18;6.18;;;8.20;99.90;;;;;;4249046;27;20094;-61
2024/02/13 00:50:11;;;;;;;8.45;4.70;;;8.20;99.90;;;;;;4267306;27;20061;-61
2024/02/13 00:52:14;;;;;;;11.70;6.03;;;8.20;99.90;;;;;;4267344;27;20494;-61
2024/02/13 00:54:16;;;;;;;10.32;5.88;;;8.20;99.90;;;;;;4249086;27;20059;-62
2024/02/13 00:56:19;;;;;;;10.82;6.38;;;8.20;99.90;;;;;;4267640;27;20046;-61
2024/02/13 00:58:21;;;;;;;12.43;6.25;;;8.10;99.90;;;;;;4267772;27;20111;-61
2024/02/13 01:00:24;;;;;;;10.80;6.10;;;8.10;99.90;;;;;;4267308;27;20435;-60
2024/02/13 01:02:26;;;;;;;11.27;5.80;;;8.00;99.90;;;;;;4267094;27;20039;-61
2024/02/13 01:04:29;;;;;;;11.10;6.38;;;8.10;99.90;;;;;;4267354;27;20129;-61
2024/02/13 01:06:32;;;;;;;15.23;6.38;;;8.10;99.90;;;;;;4267943;27;20046;-64
2024/02/13 01:08:37;;;;;;;14.98;7.35;;;8.20;99.90;;;;;;4267842;27;20516;-61
2024/02/13 01:10:39;;;;;;;16.30;7.93;;;8.30;99.90;;;;;;4267577;27;20046;-61
2024/02/13 01:12:41;;;;;;;14.18;8.18;;;8.10;99.90;;;;;;4267455;27;20046;-61
2024/02/13 01:14:43;;;;;;;17.88;7.00;;;8.20;99.90;;;;;;4266637;27;20126;-61
2024/02/13 01:16:45;;;;;;;15.45;7.15;;;8.30;99.90;;;;;;4267258;27;20073;-61
2024/02/13 01:18:50;;;;;;;20.52;8.05;;;8.10;99.90;;;;;;4266945;27;20046;-61
2024/02/13 01:20:52;;;;;;;12.07;6.72;;;8.10;99.90;;;;;;4267098;27;20470;-61
2024/02/13 01:22:55;;;;;;;15.13;8.25;;;8.20;99.90;;;;;;4266781;27;20043;-61
2024/02/13 01:24:59;;;;;;;16.08;7.00;;;8.10;99.90;;;;;;4266786;27;20069;-62
2024/02/13 01:27:01;;;;;;;15.55;8.27;;;8.00;99.90;;;;;;4266740;27;20058;-62
2024/02/13 01:29:03;;;;;;;14.48;7.50;;;8.00;99.90;;;;;;4248004;27;20047;-61
2024/02/13 01:31:05;;;;;;;21.33;9.48;;;7.80;99.90;;;;;;4266816;27;20047;-61
2024/02/13 01:33:08;;;;;;;15.57;8.70;;;7.80;99.90;;;;;;4267188;27;20148;-61
2024/02/13 01:35:11;;;;;;;14.77;7.95;;;8.00;99.90;;;;;;4267352;27;20049;-60
2024/02/13 01:37:13;;;;;;;13.88;7.63;;;8.00;99.90;;;;;;4267252;27;20125;-60
2024/02/13 01:39:15;;;;;;;14.07;7.55;;;8.00;99.90;;;;;;4267060;27;20042;-61
2024/02/13 01:41:19;;;;;;;17.75;8.82;;;8.10;99.90;;;;;;4266631;27;20042;-61
2024/02/13 01:43:24;;;;;;;18.05;9.65;;;8.10;99.90;;;;;;4266473;27;20042;-61
2024/02/13 01:45:26;;;;;;;14.07;7.78;;;8.00;99.90;;;;;;4266382;27;20074;-61
2024/02/13 01:47:29;;;;;;;16.92;9.55;;;8.20;99.90;;;;;;4266977;27;20066;-61
2024/02/13 01:49:32;;;;;;;19.60;9.25;;;8.10;99.90;;;;;;4266794;27;20482;-61
2024/02/13 01:51:35;;;;;;;14.93;8.13;;;8.00;99.90;;;;;;4266904;27;20117;-61
2024/02/13 01:53:38;;;;;;;16.35;8.13;;;8.10;99.90;;;;;;4266676;27;20042;-62
2024/02/13 01:55:41;;;;;;;17.40;9.77;;;8.00;99.90;;;;;;4265560;27;20074;-61
2024/02/13 01:57:45;;;;;;;19.40;9.50;;;7.90;99.90;;;;;;4266038;27;20042;-61
2024/02/13 01:59:47;;;;;;;19.33;8.75;;;7.80;99.90;;;;;;4266349;27;20049;-61
2024/02/13 02:01:50;;;;;;;15.43;7.72;;;7.70;99.90;;;;;;4266636;27;20047;-66
2024/02/13 02:03:54;;;;;;;16.02;8.05;;;7.70;99.90;;;;;;4266105;27;20126;-61
2024/02/13 02:05:57;;;;;;;15.85;8.65;;;7.70;99.90;;;;;;4266494;27;20125;-62
2024/02/13 02:08:00;;;;;;;12.40;7.28;;;7.70;99.90;;;;;;4266569;27;20418;-63
2024/02/13 02:10:03;;;;;;;18.10;8.02;;;7.70;99.90;;;;;;4266450;27;20455;-63
2024/02/13 02:12:05;;;;;;;15.32;7.82;;;7.80;99.90;;;;;;4266086;27;20174;-62
2024/02/13 02:14:09;;;;;;;15.45;7.88;;;7.80;99.90;;;;;;4265989;27;20054;-62
2024/02/13 02:16:11;;;;;;;14.57;8.00;;;7.70;99.90;;;;;;4266228;27;20122;-61
2024/02/13 02:18:13;;;;;;;14.57;7.45;;;7.50;99.90;;;;;;4266439;27;20046;-62
2024/02/13 02:20:17;;;;;;;12.77;6.85;;;7.50;99.90;;;;;;4266996;27;20103;-62
2024/02/13 02:22:19;;;;;;;19.33;8.50;;;7.60;99.90;;;;;;4267540;27;20046;-68
2024/02/13 02:24:21;;;;;;;15.80;7.63;;;7.60;99.90;;;;;;4267047;27;20118;-62
2024/02/13 02:26:25;;;;;;;16.90;7.32;;;7.60;99.90;;;;;;4268047;27;20050;-62
2024/02/13 02:28:28;;;;;;;18.67;7.20;;;7.60;99.90;;;;;;4268339;27;20042;-62
2024/02/13 02:30:30;;;;;;;10.98;6.97;;;7.60;99.90;;;;;;4266689;27;20046;-61
2024/02/13 02:32:33;;;;;;;15.10;7.57;;;7.70;99.90;;;;;;4266885;27;20508;-62
2024/02/13 02:34:35;;;;;;;13.13;6.47;;;7.70;99.90;;;;;;4269554;27;20065;-62
2024/02/13 02:36:37;;;;;;;14.85;7.35;;;7.80;99.90;;;;;;4269031;27;20471;-65
2024/02/13 02:38:39;;;;;;;16.75;7.75;;;7.80;99.90;;;;;;4269591;27;20043;-65
2024/02/13 02:40:43;;;;;;;13.73;6.97;;;7.80;99.90;;;;;;4251199;27;20038;-62
2024/02/13 02:42:52;;;;;;;11.77;6.77;;;7.90;99.90;;;;;;4269069;27;20038;-62
2024/02/13 02:44:54;;;;;;;14.60;6.53;;;7.90;99.90;;;;;;4267976;27;20486;-61
2024/02/13 02:46:56;;;;;;;11.98;6.40;;;7.80;99.90;;;;;;4266051;27;20088;-61
2024/02/13 02:48:58;;;;;;;16.15;8.38;;;7.90;99.90;;;;;;4265932;27;20122;-61
2024/02/13 02:51:02;;;;;;;15.02;6.97;;;7.70;99.90;;;;;;4266227;27;20046;-61
2024/02/13 02:53:04;;;;;;;16.35;7.38;;;7.80;99.90;;;;;;4268396;27;20039;-59
2024/02/13 02:55:07;;;;;;;14.80;7.93;;;7.80;99.90;;;;;;4268514;27;20074;-60
2024/02/13 02:57:11;;;;;;;16.42;8.00;;;7.60;99.90;;;;;;4267961;27;20039;-65
2024/02/13 02:59:16;;;;;;;14.10;8.10;;;7.50;99.90;;;;;;4267351;27;20046;-64
2024/02/13 03:01:18;;;;;;;17.15;8.32;;;7.60;99.90;;;;;;4266581;27;20047;-61
2024/02/13 03:03:21;;;;;;;18.23;7.72;;;7.70;99.90;;;;;;4266415;27;20045;-61
2024/02/13 03:05:25;;;;;;;17.48;8.32;;;7.80;99.90;;;;;;4267276;27;20057;-59
2024/02/13 03:07:28;;;;;;;12.02;6.25;;;7.80;99.90;;;;;;4267756;27;20081;-59
2024/02/13 03:09:30;;;;;;;15.30;8.98;;;7.80;99.90;;;;;;4267720;27;20050;-59
2024/02/13 03:11:34;;;;;;;11.55;7.28;;;7.80;99.90;;;;;;4267742;27;20042;-59
2024/02/13 03:13:36;;;;;;;15.93;6.97;;;7.80;99.90;;;;;;4267995;27;20046;-58
2024/02/13 03:15:40;;;;;;;17.08;7.15;;;7.80;99.90;;;;;;4267681;27;20145;-59
2024/02/13 03:17:44;;;;;;;14.57;7.90;;;7.80;99.90;;;;;;4266731;27;20051;-59
2024/02/13 03:19:46;;;;;;;19.35;8.80;;;7.80;99.90;;;;;;4265852;27;20038;-59
2024/02/13 03:21:48;;;;;;;22.15;8.90;;;7.70;99.90;;;;;;4247373;27;20047;-59
2024/02/13 03:23:50;;;;;;;14.77;7.85;;;7.70;99.90;;;;;;4265364;27;20054;-59
2024/02/13 03:25:52;;;;;;;12.80;8.00;;;7.80;99.90;;;;;;4247018;27;20134;-63
2024/02/13 03:27:54;;;;;;;16.45;7.88;;;7.70;99.90;;;;;;4264978;27;20137;-58
2024/02/13 03:29:58;;;;;;;13.50;7.22;;;7.70;99.90;;;;;;4265531;27;20042;-59
2024/02/13 03:32:04;;;;;;;18.85;7.93;;;7.90;99.90;;;;;;4267706;27;20099;-59
2024/02/13 03:34:07;;;;;;;14.45;7.70;;;7.90;99.90;;;;;;4266286;27;20063;-60
2024/02/13 03:36:11;;;;;;;13.95;7.53;;;8.00;99.90;;;;;;4265045;27;20142;-59
2024/02/13 03:38:15;;;;;;;13.70;7.97;;;8.00;99.90;;;;;;4265447;27;20046;-59
2024/02/13 03:40:17;;;;;;;12.73;7.87;;;8.00;99.90;;;;;;4264875;27;20058;-59
2024/02/13 03:42:19;;;;;;;15.52;7.53;;;8.10;99.90;;;;;;4265546;27;20439;-66
2024/02/13 03:44:22;;;;;;;11.95;7.70;;;8.10;99.90;;;;;;4265357;27;20046;-59
2024/02/13 03:46:24;;;;;;;17.17;7.80;;;8.20;99.90;;;;;;4265127;27;20046;-60
2024/02/13 03:48:28;;;;;;;14.02;7.38;;;8.20;99.90;;;;;;4264966;27;20088;-61
2024/02/13 03:50:30;;;;;;;14.82;8.82;;;8.20;99.90;;;;;;4265167;27;20460;-59
2024/02/13 03:52:36;;;;;;;17.20;8.88;;;8.30;99.90;;;;;;4265245;27;20062;-59
2024/02/13 03:54:38;;;;;;;12.50;7.50;;;8.20;99.90;;;;;;4264587;27;20139;-59
2024/02/13 03:56:43;;;;;;;18.25;9.10;;;8.20;99.90;;;;;;4265015;27;20046;-59
2024/02/13 03:58:45;;;;;;;18.95;8.68;;;8.20;99.90;;;;;;4265355;27;20042;-59
2024/02/13 04:00:47;;;;;;;18.80;9.13;;;8.20;99.90;;;;;;4264794;27;20118;-59
2024/02/13 04:02:50;;;;;;;19.55;7.70;;;8.20;99.90;;;;;;4265343;27;20051;-59
2024/02/13 04:04:55;;;;;;;21.38;9.55;;;8.30;99.90;;;;;;4264967;27;20039;-59
2024/02/13 04:06:59;;;;;;;18.17;10.98;;;8.30;99.90;;;;;;4265288;27;20043;-63
2024/02/13 04:09:08;;;;;;;17.65;10.80;;;8.20;99.90;;;;;;4264903;27;20049;-59
2024/02/13 04:11:10;;;;;;;26.23;11.32;;;8.20;99.90;;;;;;4265378;27;20111;-58
2024/02/13 04:13:12;;;;;;;21.10;10.77;;;8.30;99.90;;;;;;4265642;27;20046;-59
2024/02/13 04:15:14;;;;;;;25.17;12.25;;;8.30;99.90;;;;;;4248390;28;20043;-59
2024/02/13 04:17:18;;;;;;;19.35;11.45;;;8.30;99.90;;;;;;4265830;27;20440;-60
2024/02/13 04:19:20;;;;;;;19.00;11.38;;;8.30;99.90;;;;;;4267748;27;20046;-58
2024/02/13 04:21:23;;;;;;;21.55;11.77;;;8.30;99.90;;;;;;4268286;27;20043;-59
2024/02/13 04:23:27;;;;;;;21.40;11.95;;;8.20;99.90;;;;;;4267484;27;20062;-58
2024/02/13 04:25:29;;;;;;;21.95;11.70;;;8.10;99.90;;;;;;4268024;27;20042;-59
2024/02/13 04:27:31;;;;;;;18.58;11.85;;;8.10;99.90;;;;;;4249511;27;20486;-59
2024/02/13 04:29:35;;;;;;;19.92;10.82;;;8.20;99.90;;;;;;4267795;27;20395;-59
2024/02/13 04:31:38;;;;;;;19.15;11.95;;;8.20;99.90;;;;;;4267985;27;20042;-61
2024/02/13 04:33:40;;;;;;;20.45;12.45;;;8.30;99.90;;;;;;4267990;27;20126;-61
2024/02/13 04:35:42;;;;;;;20.08;12.02;;;8.30;99.90;;;;;;4267542;27;20042;-61
2024/02/13 04:37:46;;;;;;;24.08;12.88;;;8.20;99.90;;;;;;4268016;27;20038;-63
2024/02/13 04:39:52;;;;;;;20.07;11.40;;;8.30;99.90;;;;;;4268945;27;20043;-59
2024/02/13 04:41:56;;;;;;;22.63;10.85;;;8.30;99.90;;;;;;4250570;27;20440;-59
2024/02/13 04:44:02;;;;;;;23.02;11.93;;;8.30;99.90;;;;;;4268991;27;20459;-62
2024/02/13 04:46:04;;;;;;;23.05;11.25;;;8.30;99.90;;;;;;4268511;27;20046;-62
2024/02/13 04:48:07;;;;;;;18.08;11.18;;;8.40;99.90;;;;;;4268580;27;20126;-58
2024/02/13 04:50:11;;;;;;;24.33;11.88;;;8.60;99.90;;;;;;4249553;27;20208;-59
2024/02/13 04:52:17;;;;;;;25.42;11.95;;;8.50;99.90;;;;;;4267191;27;20074;-58
2024/02/13 04:54:20;;;;;;;20.25;10.20;;;8.40;99.90;;;;;;4267491;27;20038;-58
2024/02/13 04:56:23;;;;;;;18.77;11.27;;;8.50;99.90;;;;;;4267618;27;20042;-59
2024/02/13 04:58:29;;;;;;;25.52;10.88;;;8.60;99.90;;;;;;4267603;27;20231;-61
2024/02/13 05:00:36;;;;;;;19.23;10.07;;;8.70;99.90;;;;;;4267640;27;20050;-60
2024/02/13 05:02:39;;;;;;;22.17;9.88;;;8.70;99.90;;;;;;4267203;27;20531;-59
2024/02/13 05:07:20;;;;;;;22.27;10.70;;;8.90;99.90;;;;;;4267324;27;20125;-61
2024/02/13 05:09:24;;;;;;;19.83;9.23;;;8.70;99.90;;;;;;4267806;27;20058;-60
2024/02/13 05:11:27;;;;;;;17.98;9.30;;;8.70;99.90;;;;;;4267776;27;20369;-60
2024/02/13 05:13:32;;;;;;;16.67;9.15;;;8.70;99.90;;;;;;4269141;27;20401;-59
2024/02/13 05:15:36;;;;;;;19.08;8.88;;;8.70;99.90;;;;;;4268145;27;20501;-58
2024/02/13 05:17:39;;;;;;;17.52;8.55;;;8.70;99.90;;;;;;4267542;27;20386;-58
2024/02/13 05:19:42;;;;;;;14.00;7.53;;;8.60;99.90;;;;;;4267571;27;20061;-59
2024/02/13 05:21:44;;;;;;;13.25;8.02;;;8.70;99.90;;;;;;4266924;27;20050;-59
2024/02/13 05:23:49;;;;;;;17.40;7.95;;;8.70;99.90;;;;;;4267286;27;20057;-62
2024/02/13 05:25:54;;;;;;;14.13;7.82;;;8.90;99.90;;;;;;4267304;27;20042;-59
2024/02/13 05:27:56;;;;;;;15.02;7.80;;;8.80;99.90;;;;;;4267899;27;20408;-61
2024/02/13 05:30:00;;;;;;;17.50;7.35;;;8.80;99.90;;;;;;4267211;27;20053;-59
2024/02/13 05:32:03;;;;;;;14.80;8.38;;;8.90;99.90;;;;;;4267146;27;20078;-59
2024/02/13 05:34:06;;;;;;;16.63;7.80;;;8.80;99.90;;;;;;4267067;27;20074;-59
2024/02/13 05:36:09;;;;;;;17.90;8.20;;;8.80;99.90;;;;;;4266902;27;20057;-59
2024/02/13 05:38:12;;;;;;;16.00;7.68;;;8.80;99.90;;;;;;4267073;27;20049;-60
2024/02/13 05:40:14;;;;;;;16.08;8.32;;;8.80;99.90;;;;;;4248484;27;20039;-58
2024/02/13 05:42:18;;;;;;;17.75;9.20;;;8.80;99.90;;;;;;4267088;27;20072;-59
2024/02/13 05:44:21;;;;;;;17.30;8.52;;;8.80;99.90;;;;;;4266532;27;20039;-59
2024/02/13 05:46:24;;;;;;;16.27;8.52;;;8.80;99.90;;;;;;4266681;27;20129;-59
2024/02/13 05:48:26;;;;;;;17.35;8.65;;;8.80;99.90;;;;;;4266500;27;20125;-59
2024/02/13 05:50:29;;;;;;;16.55;9.02;;;8.70;99.90;;;;;;4266422;27;20149;-59
2024/02/13 05:52:31;;;;;;;15.82;8.45;;;8.70;99.90;;;;;;4266700;27;20088;-59
2024/02/13 05:54:34;;;;;;;22.50;8.48;;;8.60;99.90;;;;;;4248095;27;20058;-60
2024/02/13 05:56:38;;;;;;;17.15;9.57;;;8.70;99.90;;;;;;4266539;27;20046;-63
2024/02/13 05:58:42;;;;;;;14.80;8.23;;;8.70;99.90;;;;;;4266892;27;20050;-61
2024/02/13 06:00:45;;;;;;;15.32;8.68;;;8.60;99.90;;;;;;4267498;27;20439;-60
2024/02/13 06:02:47;;;;;;;17.42;8.95;;;8.70;99.90;;;;;;4268475;27;20497;-60
2024/02/13 06:04:49;;;;;;;14.02;8.15;;;8.70;99.90;;;;;;4267063;27;20043;-59
2024/02/13 06:06:52;;;;;;;15.45;8.50;;;8.70;99.90;;;;;;4265740;27;20405;-58
2024/02/13 06:08:55;;;;;;;16.77;8.98;;;8.70;99.90;;;;;;4266536;27;20066;-58
2024/02/13 06:11:00;;;;;;;17.20;8.60;;;8.70;99.90;;;;;;4266471;27;20038;-59
2024/02/13 06:13:02;;;;;;;17.67;8.77;;;8.70;99.90;;;;;;4266667;27;20406;-59
2024/02/13 06:15:08;;;;;;;19.60;8.50;;;8.60;99.90;;;;;;4266400;27;20043;-59
2024/02/13 06:17:10;;;;;;;14.63;7.90;;;8.60;99.90;;;;;;4266778;27;20405;-59
2024/02/13 06:19:12;;;;;;;20.00;9.55;;;8.60;99.90;;;;;;4267128;27;20046;-61
2024/02/13 06:21:18;;;;;;;20.85;9.13;;;8.60;99.90;;;;;;4266188;27;20051;-59
2024/02/13 06:23:24;;;;;;;17.63;8.98;;;8.70;99.90;;;;;;4266309;27;20443;-60
2024/02/13 06:25:27;;;;;;;13.73;7.15;;;8.60;99.90;;;;;;4265917;27;20129;-60
2024/02/13 06:27:29;;;;;;;14.90;7.68;;;8.60;99.90;;;;;;4266331;27;20070;-61
2024/02/13 06:29:31;;;;;;;12.55;7.18;;;8.70;99.90;;;;;;4266205;27;20409;-59
2024/02/13 06:31:35;;;;;;;17.17;6.93;;;8.70;99.90;;;;;;4247638;27;20043;-59
2024/02/13 06:33:38;;;;;;;11.73;6.32;;;8.80;99.90;;;;;;4265932;27;20072;-59
2024/02/13 06:35:41;;;;;;;10.77;5.87;;;9.00;99.90;;;;;;4266028;27;20110;-66
2024/02/13 06:37:43;;;;;;;11.93;7.18;;;9.20;99.90;;;;;;4266059;27;20047;-60
2024/02/13 06:39:46;;;;;;;15.15;7.10;;;9.10;99.90;;;;;;4247378;27;20047;-59
2024/02/13 06:41:49;;;;;;;15.50;6.88;;;9.20;99.90;;;;;;4265940;27;20134;-58
2024/02/13 06:43:51;;;;;;;13.05;7.13;;;9.10;99.90;;;;;;4265883;27;20051;-59
2024/02/13 06:45:55;;;;;;;10.27;6.60;;;9.00;99.90;;;;;;4266166;27;20047;-59
2024/02/13 06:48:00;;;;;;;13.25;5.55;;;8.90;99.90;;;;;;4265572;27;20054;-64
2024/02/13 06:50:07;;;;;;;11.32;5.10;;;8.80;99.90;;;;;;4266249;27;20059;-61
2024/02/13 06:52:09;;;;;;;15.23;5.93;;;8.80;99.90;;;;;;4266806;27;20098;-59
2024/02/13 06:54:11;;;;;;;14.70;5.72;;;8.80;99.90;;;;;;4268566;27;20053;-62
2024/02/13 06:56:14;;;;;;;11.77;5.80;;;8.80;99.90;;;;;;4266188;27;20125;-58
2024/02/13 06:58:17;;;;;;;9.10;5.25;;;8.80;99.90;;;;;;4265890;27;20458;-58
2024/02/13 07:00:20;;;;;;;13.40;6.10;;;8.90;99.90;;;;;;4247111;27;20510;-61
2024/02/13 07:02:22;;;;;;;10.43;5.47;;;8.90;99.90;;;;;;4265600;27;20039;-58
2024/02/13 07:04:25;;;;;;;14.07;5.70;;;8.90;99.90;;;;;;4247435;27;20092;-60
2024/02/13 07:06:28;;;;;;;10.10;5.32;;;8.90;99.90;;;;;;4265611;27;20050;-61
2024/02/13 07:08:49;;;;;;;12.15;6.07;;;8.80;99.90;;;;;;4265807;27;20050;-64
2024/02/13 07:10:52;;;;;;;11.25;6.28;;;8.60;99.90;;;;;;4265762;27;20103;-58
2024/02/13 07:12:56;;;;;;;11.15;5.90;;;8.60;99.90;;;;;;4265860;27;20043;-58
2024/02/13 07:15:00;;;;;;;16.13;6.78;;;8.50;99.90;;;;;;4265723;27;20050;-61
2024/02/13 07:17:02;;;;;;;13.70;6.68;;;8.50;99.90;;;;;;4265029;27;20081;-59
2024/02/13 07:19:05;;;;;;;14.20;6.57;;;8.50;99.90;;;;;;4265326;27;20484;-59
2024/02/13 07:21:10;;;;;;;14.23;7.10;;;8.60;99.90;;;;;;4265563;27;20039;-59
2024/02/13 07:23:13;;;;;;;13.55;7.18;;;8.60;99.90;;;;;;4265596;27;20047;-59
2024/02/13 07:25:15;;;;;;;13.60;7.05;;;8.60;99.90;;;;;;4265423;27;20565;-66
2024/02/13 07:27:17;;;;;;;12.23;6.18;;;8.50;99.90;;;;;;4247437;28;20195;-59
2024/02/13 07:29:20;;;;;;;12.80;6.38;;;8.70;99.90;;;;;;4265800;27;20074;-59
2024/02/13 07:31:23;;;;;;;12.27;6.18;;;8.60;99.90;;;;;;4265285;27;20400;-59
2024/02/13 07:33:26;;;;;;;13.65;5.70;;;8.70;99.90;;;;;;4265489;27;20126;-59
2024/02/13 07:35:30;;;;;;;;;;;8.70;99.90;;;;;;4266018;27;20039;-58
2024/02/13 07:37:33;;;;;;;14.70;6.38;;;8.70;99.90;;;;;;4265380;27;19919;-59
2024/02/13 07:39:36;;;;;;;17.55;6.10;;;8.70;99.90;;;;;;4265705;27;20047;-58
2024/02/13 07:41:38;;;;;;;14.93;5.63;;;8.70;99.90;;;;;;4265596;27;20039;-58
2024/02/13 07:43:41;;;;;;;14.77;5.82;;;8.80;99.90;;;;;;4265771;27;20051;-58
2024/02/13 07:45:43;;;;;;;18.08;6.07;;;8.80;99.90;;;;;;4247668;27;20049;-58
2024/02/13 07:47:45;;;;;;;16.50;5.65;;;8.80;99.90;;;;;;4268017;27;20047;-60
2024/02/13 07:49:48;;;;;;;17.10;6.18;;;8.90;99.90;;;;;;4267653;27;20077;-58
2024/02/13 07:51:54;;;;;;;15.23;6.10;;;8.90;99.90;;;;;;4265976;27;20047;-58
2024/02/13 07:53:57;;;;;;;15.57;6.40;;;8.90;99.90;;;;;;4248806;27;20122;-61
2024/02/13 07:56:00;;;;;;;16.50;6.28;;;8.90;99.90;;;;;;4268706;27;20097;-61
2024/02/13 07:58:02;;;;;;;19.15;6.82;;;8.90;99.90;;;;;;4268800;27;20046;-60
2024/02/13 08:00:06;;;;;;;11.30;7.15;;;8.90;99.90;;;;;;4268700;27;20043;-60
2024/02/13 08:02:09;;;;;;;18.35;6.32;;;8.90;99.90;;;;;;4268544;27;20049;-61
2024/02/13 08:04:12;;;;;;;11.27;6.28;;;9.00;99.90;;;;;;4268604;27;20100;-59
2024/02/13 08:06:14;;;;;;;16.67;6.75;;;9.10;99.90;;;;;;4250169;27;20047;-58
2024/02/13 08:08:16;;;;;;;14.65;7.68;;;9.20;99.90;;;;;;4268693;27;20058;-58
2024/02/13 08:10:20;;;;;;;15.15;7.15;;;9.30;99.90;;;;;;4269079;27;20126;-58
2024/02/13 08:12:22;;;;;;;20.13;7.10;;;9.30;99.90;;;;;;4269621;27;20043;-59
2024/02/13 08:14:24;;;;;;;16.60;6.50;;;9.30;99.90;;;;;;4269120;27;20538;-59
2024/02/13 08:16:29;;;;;;;22.95;7.50;;;9.30;99.90;;;;;;4269342;27;20062;-58
2024/02/13 08:18:31;;;;;;;13.75;6.75;;;9.30;99.90;;;;;;4269028;27;20474;-63
2024/02/13 08:20:33;;;;;;;12.63;6.57;;;9.20;99.90;;;;;;4268969;27;20073;-58
2024/02/13 08:22:37;;;;;;;15.00;6.20;;;9.20;99.90;;;;;;4268409;27;20050;-58
2024/02/13 08:24:40;;;;;;;16.42;7.13;;;9.20;99.90;;;;;;4268105;27;20066;-58
2024/02/13 08:26:43;;;;;;;12.52;6.40;;;9.30;99.90;;;;;;4268204;27;20087;-60
2024/02/13 08:28:47;;;;;;;17.65;6.25;;;9.20;99.90;;;;;;4268228;27;20391;-58
2024/02/13 08:30:50;;;;;;;16.97;4.77;;;9.30;99.90;;;;;;4268071;27;20472;-60
2024/02/13 08:32:52;;;;;;;17.05;7.13;;;9.10;99.90;;;;;;4268880;27;20466;-60
2024/02/13 08:34:56;;;;;;;19.88;6.57;;;9.00;99.90;;;;;;4270927;27;20400;-60
2024/02/13 08:36:59;;;;;;;;;;;9.10;99.90;;;;;;4269089;27;20054;-60
2024/02/13 08:39:02;;;;;;;17.90;6.88;;;8.90;99.90;;;;;;4268225;27;19918;-59
2024/02/13 08:41:04;;;;;;;25.58;6.68;;;9.10;99.90;;;;;;4267957;27;20042;-59
2024/02/13 08:43:10;;;;;;;20.13;7.65;;;9.20;99.90;;;;;;4267804;27;20043;-59
2024/02/13 08:45:12;;;;;;;15.00;6.97;;;9.20;99.90;;;;;;4267477;27;20061;-58
2024/02/13 08:47:14;;;;;;;18.27;6.30;;;9.30;99.90;;;;;;4267860;27;20499;-58
2024/02/13 08:49:17;;;;;;;21.52;7.03;;;9.40;99.90;;;;;;4268016;27;20054;-58
2024/02/13 08:51:20;;;;;;;17.38;6.93;;;9.40;99.90;;;;;;4268007;27;20047;-59
2024/02/13 08:53:23;;;;;;;14.23;6.28;;;9.50;99.90;;;;;;4268094;27;20050;-58
2024/02/13 08:55:25;;;;;;;19.17;6.97;;;9.50;99.90;;;;;;4249408;27;20047;-60
2024/02/13 08:57:27;;;;;;;18.63;6.72;;;9.50;99.90;;;;;;4250839;27;20047;-63
2024/02/13 08:59:31;;;;;;;20.15;7.63;;;9.60;99.90;;;;;;4250863;27;20394;-59
2024/02/13 09:01:34;;;;;;;16.08;6.80;;;9.70;99.90;;;;;;4251713;27;20520;-60
2024/02/13 09:03:36;;;;;;;18.27;6.95;;;9.70;99.90;;;;;;4251123;27;20039;-59
2024/02/13 09:05:38;;;;;;;28.27;7.35;;;9.70;99.90;;;;;;4250493;27;20409;-59
2024/02/13 09:07:41;;;;;;;18.67;7.05;;;9.70;99.90;;;;;;4251654;27;20054;-59
2024/02/13 09:09:43;;;;;;;16.08;6.85;;;9.80;99.90;;;;;;4251174;27;20070;-61
2024/02/13 09:11:46;;;;;;;20.13;7.18;;;9.80;99.90;;;;;;4251549;27;20043;-59
2024/02/13 09:13:49;;;;;;;13.25;6.53;;;9.80;99.90;;;;;;4250550;27;20043;-59
2024/02/13 09:15:55;;;;;;;21.40;6.55;;;10.00;99.90;;;;;;4251428;27;20050;-59
2024/02/13 09:17:57;;;;;;;17.63;6.95;;;10.00;99.90;;;;;;4251121;27;20078;-62
2024/02/13 09:19:59;;;;;;;17.92;7.03;;;10.00;99.90;;;;;;4251034;27;20043;-66
2024/02/13 09:22:02;;;;;;;25.63;7.75;;;10.00;99.90;;;;;;4251477;27;20050;-60
2024/02/13 09:24:05;;;;;;;22.88;7.25;;;10.10;99.90;;;;;;4251399;27;20043;-59
2024/02/13 09:26:07;;;;;;;13.00;6.32;;;10.10;99.90;;;;;;4250599;27;20051;-60
2024/02/13 09:28:09;;;;;;;17.08;7.53;;;10.10;99.90;;;;;;4249597;27;20047;-59
2024/02/13 09:30:12;;;;;;;19.48;7.32;;;10.10;99.90;;;;;;4250070;27;20482;-59
2024/02/13 09:32:16;;;;;;;27.08;8.15;;;10.20;99.90;;;;;;4250290;27;20070;-59
2024/02/13 09:34:18;;;;;;;19.77;7.25;;;10.30;99.90;;;;;;4252764;27;20122;-63
2024/02/13 09:36:21;;;;;;;17.73;7.68;;;10.20;99.90;;;;;;4249919;27;20047;-63
2024/02/13 09:38:23;;;;;;;15.55;7.13;;;10.20;99.90;;;;;;4250545;27;20066;-59
2024/02/13 09:40:28;;;;;;;22.67;7.43;;;10.10;99.90;;;;;;4250549;27;20070;-59
2024/02/13 09:42:30;;;;;;;20.77;7.40;;;10.20;99.90;;;;;;4249762;27;20478;-58
2024/02/13 09:44:32;;;;;;;22.50;7.00;;;10.20;99.90;;;;;;4252179;27;20054;-59
2024/02/13 09:46:38;;;;;;;20.10;7.78;;;10.10;99.90;;;;;;4252518;27;20043;-60
2024/02/13 09:48:46;;;;;;;17.38;7.00;;;10.10;99.90;;;;;;4252231;27;20043;-62
2024/02/13 09:50:53;;;;;;;14.75;7.25;;;10.20;99.90;;;;;;4250881;27;20047;-60
2024/02/13 09:53:01;;;;;;;16.17;7.13;;;10.30;99.90;;;;;;4252384;27;20118;-66
2024/02/13 09:55:04;;;;;;;17.25;7.78;;;10.20;99.90;;;;;;4260290;27;20060;-59
2024/02/13 09:57:06;;;;;;;16.05;7.40;;;10.20;99.90;;;;;;4268752;27;20070;-59
2024/02/13 09:59:11;;;;;;;16.23;6.88;;;10.30;99.90;;;;;;4267832;27;20409;-58
2024/02/13 10:01:14;;;;;;;;;;;10.60;99.90;;;;;;4267216;27;20047;-59
2024/02/13 10:03:16;;;;;;;12.02;6.72;;;10.60;99.90;;;;;;4266797;27;19919;-59
2024/02/13 10:05:20;;;;;;;20.60;7.47;;;10.60;99.90;;;;;;4266713;27;20133;-59
2024/02/13 10:07:23;;;;;;;;;;;10.70;99.90;;;;;;4267037;27;20074;-66
2024/02/13 10:09:29;;;;;;;18.55;8.55;;;10.80;99.90;;;;;;4266601;27;20330;-60
2024/02/13 10:11:36;;;;;;;16.70;7.50;;;10.70;99.90;;;;;;4265871;27;20122;-59
2024/02/13 10:13:39;;;;;;;20.00;8.32;;;10.90;99.90;;;;;;4267270;27;20397;-57
2024/02/13 10:15:49;;;;;;;18.10;7.55;;;11.00;99.90;;;;;;4267230;27;20043;-58
2024/02/13 10:17:51;;;;;;;20.92;8.68;;;11.00;99.90;;;;;;4266321;27;20094;-58
2024/02/13 10:19:54;;;;;;;18.83;8.45;;;11.10;99.90;;;;;;4266061;27;20057;-59
2024/02/13 10:22:05;;;;;;;22.83;9.57;;;11.00;99.80;;;;;;4266383;27;20053;-59
2024/02/13 10:24:12;;;;;;;23.50;10.07;;;11.10;99.90;;;;;;4265998;27;20039;-58
2024/02/13 10:26:15;;;;;;;21.80;9.90;;;11.00;99.90;;;;;;4265810;27;20038;-58
2024/02/13 10:28:19;;;;;;;20.75;9.85;;;11.00;99.70;;;;;;4266018;27;20043;-59
2024/02/13 10:30:22;;;;;;;19.77;8.45;;;10.90;99.90;;;;;;4265961;27;20099;-59
2024/02/13 10:32:25;;;;;;;21.15;8.50;;;11.00;99.90;;;;;;4265981;27;20070;-59
2024/02/13 10:34:27;;;;;;;23.40;8.77;;;11.10;99.60;;;;;;4266758;27;20049;-58
2024/02/13 10:36:30;;;;;;;24.25;9.20;;;11.10;99.70;;;;;;4249147;27;20482;-59
2024/02/13 10:38:36;;;;;;;14.40;7.35;;;11.10;99.40;;;;;;4266866;27;20070;-64
2024/02/13 10:40:41;;;;;;;12.63;8.10;;;11.20;99.60;;;;;;4265979;27;20402;-60
2024/02/13 10:42:43;;;;;;;14.82;8.20;;;11.40;99.10;;;;;;4266028;27;20546;-59